Jucurucu, Brazil
Current Conditions -  °F | °C
As of 11:00 PM on Wednesday 22 Oct 2014 (Local Time) from SBPS Reporting Station
Light Rain Light Rain  
Wind Chill: 72°   Ceiling: 800
Heat Index: 72°   Visibility: 2.5mi
Dew Point: 68°   Wind: 6mph
Humidity: 88%   Direction: 170°S
Pressure: 30.12"   Gusts: NA
Location:  16.84°S, 40.16°W
Report Text: SBPS 230200Z 17005KT 4000 -RA BKN008 BKN020 BKN070 22/20 Q1020
Loading
Personal Weather Stations






























Interactive Weather Map
Tropical Storm Tracking
New forecast layout! Learn more

10-Day Weather Forecast

Advertisements
Track Severe Weather on mobile